sensor_id;sensor_type;location;lat;lon;timestamp;pressure;altitude;pressure_sealevel;temperature;humidity
79709;BME280;69203;48.964;9.118;2024-02-21T00:00:02;99938.09;;;5.64;100.00
79709;BME280;69203;48.964;9.118;2024-02-21T00:01:03;99948.50;;;5.64;100.00
79709;BME280;69203;48.964;9.118;2024-02-21T00:02:04;99940.78;;;5.61;100.00
79709;BME280;69203;48.964;9.118;2024-02-21T00:03:04;99934.41;;;5.71;100.00
79709;BME280;69203;48.964;9.118;2024-02-21T00:04:04;99943.13;;;5.70;100.00
79709;BME280;69203;48.964;9.118;2024-02-21T00:05:05;99939.81;;;5.65;100.00
79709;BME280;69203;48.964;9.118;2024-02-21T00:06:06;99939.88;;;5.62;100.00
79709;BME280;69203;48.964;9.118;2024-02-21T00:07:06;99932.75;;;5.68;100.00
79709;BME280;69203;48.964;9.118;2024-02-21T00:08:06;99935.94;;;5.76;100.00
79709;BME280;69203;48.964;9.118;2024-02-21T00:09:07;99935.19;;;5.73;100.00
79709;BME280;69203;48.964;9.118;2024-02-21T00:10:07;99937.91;;;5.70;100.00
79709;BME280;69203;48.964;9.118;2024-02-21T00:11:07;99939.47;;;5.75;100.00
79709;BME280;69203;48.964;9.118;2024-02-21T00:12:08;99940.34;;;5.76;100.00
79709;BME280;69203;48.964;9.118;2024-02-21T00:13:08;99934.09;;;5.81;100.00
79709;BME280;69203;48.964;9.118;2024-02-21T00:14:08;99934.19;;;5.77;100.00
79709;BME280;69203;48.964;9.118;2024-02-21T00:15:10;99928.09;;;5.78;100.00
79709;BME280;69203;48.964;9.118;2024-02-21T00:16:11;99923.13;;;5.70;100.00
79709;BME280;69203;48.964;9.118;2024-02-21T00:17:11;99924.78;;;5.73;100.00
79709;BME280;69203;48.964;9.118;2024-02-21T00:18:12;99921.28;;;5.74;100.00
79709;BME280;69203;48.964;9.118;2024-02-21T00:19:13;99920.94;;;5.84;100.00
79709;BME280;69203;48.964;9.118;2024-02-21T00:20:14;99907.25;;;5.78;100.00
79709;BME280;69203;48.964;9.118;2024-02-21T00:21:14;99903.22;;;5.68;100.00
79709;BME280;69203;48.964;9.118;2024-02-21T00:22:18;99908.16;;;5.77;100.00
79709;BME280;69203;48.964;9.118;2024-02-21T00:23:18;99914.69;;;5.91;100.00
79709;BME280;69203;48.964;9.118;2024-02-21T00:24:18;99906.78;;;5.93;100.00
79709;BME280;69203;48.964;9.118;2024-02-21T00:25:18;99900.00;;;5.89;100.00
79709;BME280;69203;48.964;9.118;2024-02-21T00:26:18;99900.09;;;5.84;100.00
79709;BME280;69203;48.964;9.118;2024-02-21T00:27:20;99900.66;;;5.96;100.00
79709;BME280;69203;48.964;9.118;2024-02-21T00:28:20;99907.47;;;6.00;100.00
79709;BME280;69203;48.964;9.118;2024-02-21T00:29:21;99906.66;;;5.98;100.00
79709;BME280;69203;48.964;9.118;2024-02-21T00:30:21;99896.44;;;5.91;100.00
79709;BME280;69203;48.964;9.118;2024-02-21T00:31:21;99897.38;;;5.89;100.00
79709;BME280;69203;48.964;9.118;2024-02-21T00:32:22;99898.19;;;5.91;100.00
79709;BME280;69203;48.964;9.118;2024-02-21T00:33:22;99894.69;;;5.92;100.00
79709;BME280;69203;48.964;9.118;2024-02-21T00:34:22;99892.84;;;5.96;100.00
79709;BME280;69203;48.964;9.118;2024-02-21T00:35:22;99893.72;;;5.94;100.00
79709;BME280;69203;48.964;9.118;2024-02-21T00:36:23;99898.31;;;5.86;100.00
79709;BME280;69203;48.964;9.118;2024-02-21T00:37:23;99891.41;;;5.85;100.00
79709;BME280;69203;48.964;9.118;2024-02-21T00:38:23;99883.56;;;5.85;100.00
79709;BME280;69203;48.964;9.118;2024-02-21T00:39:24;99883.63;;;5.84;100.00
79709;BME280;69203;48.964;9.118;2024-02-21T00:40:24;99892.31;;;5.83;100.00
79709;BME280;69203;48.964;9.118;2024-02-21T00:41:24;99886.22;;;5.84;100.00
79709;BME280;69203;48.964;9.118;2024-02-21T00:42:24;99890.47;;;5.88;100.00
79709;BME280;69203;48.964;9.118;2024-02-21T00:43:25;99886.81;;;5.93;100.00
79709;BME280;69203;48.964;9.118;2024-02-21T00:44:25;99888.63;;;5.91;100.00
79709;BME280;69203;48.964;9.118;2024-02-21T00:45:25;99886.81;;;5.93;100.00
79709;BME280;69203;48.964;9.118;2024-02-21T00:46:25;99885.56;;;6.05;100.00
79709;BME280;69203;48.964;9.118;2024-02-21T00:47:25;99886.53;;;6.03;100.00
79709;BME280;69203;48.964;9.118;2024-02-21T00:48:26;99885.41;;;6.10;100.00
79709;BME280;69203;48.964;9.118;2024-02-21T00:49:26;99880.16;;;6.11;100.00
79709;BME280;69203;48.964;9.118;2024-02-21T00:50:26;99878.13;;;6.19;100.00
79709;BME280;69203;48.964;9.118;2024-02-21T00:51:26;99880.53;;;6.25;100.00
79709;BME280;69203;48.964;9.118;2024-02-21T00:52:27;99882.91;;;6.33;100.00
79709;BME280;69203;48.964;9.118;2024-02-21T00:53:27;99885.63;;;6.55;100.00
79709;BME280;69203;48.964;9.118;2024-02-21T00:54:27;99880.66;;;6.47;100.00
79709;BME280;69203;48.964;9.118;2024-02-21T00:55:27;99886.72;;;6.48;100.00
79709;BME280;69203;48.964;9.118;2024-02-21T00:56:28;99878.78;;;6.51;100.00
79709;BME280;69203;48.964;9.118;2024-02-21T00:57:29;99878.34;;;6.40;100.00
79709;BME280;69203;48.964;9.118;2024-02-21T00:58:32;99882.69;;;6.39;100.00
79709;BME280;69203;48.964;9.118;2024-02-21T00:59:32;99870.81;;;6.30;100.00
79709;BME280;69203;48.964;9.118;2024-02-21T01:00:32;99872.75;;;6.24;100.00
79709;BME280;69203;48.964;9.118;2024-02-21T01:01:33;99876.13;;;6.27;100.00
79709;BME280;69203;48.964;9.118;2024-02-21T01:02:33;99874.25;;;6.31;100.00
79709;BME280;69203;48.964;9.118;2024-02-21T01:03:33;99878.59;;;6.32;100.00
79709;BME280;69203;48.964;9.118;2024-02-21T01:04:34;99872.19;;;6.16;100.00
79709;BME280;69203;48.964;9.118;2024-02-21T01:05:34;99865.59;;;6.30;100.00
79709;BME280;69203;48.964;9.118;2024-02-21T01:06:35;99871.03;;;6.49;100.00
79709;BME280;69203;48.964;9.118;2024-02-21T01:07:35;99862.41;;;6.47;100.00
79709;BME280;69203;48.964;9.118;2024-02-21T01:08:35;99867.44;;;6.52;100.00
79709;BME280;69203;48.964;9.118;2024-02-21T01:09:36;99861.75;;;6.41;100.00
79709;BME280;69203;48.964;9.118;2024-02-21T01:10:36;99869.84;;;6.58;100.00
79709;BME280;69203;48.964;9.118;2024-02-21T01:11:36;99865.13;;;6.44;100.00
79709;BME280;69203;48.964;9.118;2024-02-21T01:12:37;99864.13;;;6.48;100.00
79709;BME280;69203;48.964;9.118;2024-02-21T01:13:37;99853.03;;;6.42;100.00
79709;BME280;69203;48.964;9.118;2024-02-21T01:14:37;99857.09;;;6.24;100.00
79709;BME280;69203;48.964;9.118;2024-02-21T01:15:37;99854.22;;;6.33;100.00
79709;BME280;69203;48.964;9.118;2024-02-21T01:16:38;99859.06;;;6.44;100.00
79709;BME280;69203;48.964;9.118;2024-02-21T01:17:38;99854.47;;;6.25;100.00
79709;BME280;69203;48.964;9.118;2024-02-21T01:18:40;99849.31;;;6.49;100.00
79709;BME280;69203;48.964;9.118;2024-02-21T01:19:40;99851.59;;;6.33;100.00
79709;BME280;69203;48.964;9.118;2024-02-21T01:20:41;99841.06;;;6.36;100.00
79709;BME280;69203;48.964;9.118;2024-02-21T01:21:41;99837.28;;;6.20;100.00
79709;BME280;69203;48.964;9.118;2024-02-21T01:22:41;99841.47;;;6.24;100.00
79709;BME280;69203;48.964;9.118;2024-02-21T01:23:42;99836.81;;;6.33;100.00
79709;BME280;69203;48.964;9.118;2024-02-21T01:24:42;99836.03;;;6.30;100.00
79709;BME280;69203;48.964;9.118;2024-02-21T01:25:42;99832.34;;;6.12;100.00
79709;BME280;69203;48.964;9.118;2024-02-21T01:26:42;99831.81;;;6.27;100.00
79709;BME280;69203;48.964;9.118;2024-02-21T01:27:43;99827.00;;;6.15;100.00
79709;BME280;69203;48.964;9.118;2024-02-21T01:28:43;99831.19;;;6.19;100.00
79709;BME280;69203;48.964;9.118;2024-02-21T01:29:43;99832.50;;;6.08;100.00
79709;BME280;69203;48.964;9.118;2024-02-21T01:30:44;99824.03;;;6.01;100.00
79709;BME280;69203;48.964;9.118;2024-02-21T01:31:44;99825.44;;;6.10;100.00
79709;BME280;69203;48.964;9.118;2024-02-21T01:32:44;99830.88;;;6.04;100.00
79709;BME280;69203;48.964;9.118;2024-02-21T01:33:44;99821.41;;;6.01;100.00
79709;BME280;69203;48.964;9.118;2024-02-21T01:34:45;99825.94;;;6.21;100.00
79709;BME280;69203;48.964;9.118;2024-02-21T01:35:45;99823.63;;;6.13;100.00
79709;BME280;69203;48.964;9.118;2024-02-21T01:36:45;99821.41;;;6.01;100.00
79709;BME280;69203;48.964;9.118;2024-02-21T01:37:45;99821.38;;;6.03;100.00
79709;BME280;69203;48.964;9.118;2024-02-21T01:38:46;99822.09;;;6.06;100.00
79709;BME280;69203;48.964;9.118;2024-02-21T01:39:46;99825.44;;;6.10;100.00
79709;BME280;69203;48.964;9.118;2024-02-21T01:40:46;99816.03;;;6.06;100.00
79709;BME280;69203;48.964;9.118;2024-02-21T01:41:46;99817.94;;;6.01;100.00
79709;BME280;69203;48.964;9.118;2024-02-21T01:42:47;99812.91;;;5.96;100.00
79709;BME280;69203;48.964;9.118;2024-02-21T01:43:48;99815.34;;;6.01;100.00
79709;BME280;69203;48.964;9.118;2024-02-21T01:44:48;99812.63;;;6.04;100.00
79709;BME280;69203;48.964;9.118;2024-02-21T01:45:49;99817.66;;;6.08;100.00
79709;BME280;69203;48.964;9.118;2024-02-21T01:46:50;99819.59;;;6.03;100.00
79709;BME280;69203;48.964;9.118;2024-02-21T01:47:51;99793.09;;;5.90;100.00
79709;BME280;69203;48.964;9.118;2024-02-21T01:48:52;99803.06;;;6.04;100.00
79709;BME280;69203;48.964;9.118;2024-02-21T01:49:52;99798.59;;;6.08;100.00
79709;BME280;69203;48.964;9.118;2024-02-21T01:50:54;99801.91;;;6.13;100.00
79709;BME280;69203;48.964;9.118;2024-02-21T01:51:54;99806.16;;;6.15;100.00
79709;BME280;69203;48.964;9.118;2024-02-21T01:52:55;99809.50;;;6.19;100.00
79709;BME280;69203;48.964;9.118;2024-02-21T01:53:55;99806.75;;;6.23;100.00
79709;BME280;69203;48.964;9.118;2024-02-21T01:54:57;99806.75;;;6.23;100.00
79709;BME280;69203;48.964;9.118;2024-02-21T01:55:58;99800.69;;;6.23;100.00
79709;BME280;69203;48.964;9.118;2024-02-21T01:56:58;99802.44;;;6.22;100.00
79709;BME280;69203;48.964;9.118;2024-02-21T01:57:58;99806.78;;;6.22;100.00
79709;BME280;69203;48.964;9.118;2024-02-21T01:58:58;99797.22;;;6.22;100.00
79709;BME280;69203;48.964;9.118;2024-02-21T01:59:59;99797.31;;;6.19;100.00
79709;BME280;69203;48.964;9.118;2024-02-21T02:00:59;99793.81;;;6.20;100.00
79709;BME280;69203;48.964;9.118;2024-02-21T02:01:59;99794.88;;;6.15;100.00
79709;BME280;69203;48.964;9.118;2024-02-21T02:03:00;99790.50;;;6.15;100.00
79709;BME280;69203;48.964;9.118;2024-02-21T02:04:00;99784.50;;;6.13;100.00
79709;BME280;69203;48.964;9.118;2024-02-21T02:05:00;99787.91;;;6.15;100.00
79709;BME280;69203;48.964;9.118;2024-02-21T02:06:01;99791.31;;;6.17;100.00
79709;BME280;69203;48.964;9.118;2024-02-21T02:07:02;99780.06;;;6.15;100.00
79709;BME280;69203;48.964;9.118;2024-02-21T02:08:04;99776.63;;;6.15;100.00
79709;BME280;69203;48.964;9.118;2024-02-21T02:09:04;99773.84;;;6.19;100.00
79709;BME280;69203;48.964;9.118;2024-02-21T02:10:04;99778.28;;;6.17;100.00
79709;BME280;69203;48.964;9.118;2024-02-21T02:11:05;99771.34;;;6.16;100.00
79709;BME280;69203;48.964;9.118;2024-02-21T02:12:06;99774.13;;;6.12;100.00
79709;BME280;69203;48.964;9.118;2024-02-21T02:13:07;99771.56;;;6.10;100.00
79709;BME280;69203;48.964;9.118;2024-02-21T02:14:07;99764.63;;;6.09;100.00
79709;BME280;69203;48.964;9.118;2024-02-21T02:15:07;99761.19;;;6.09;100.00
79709;BME280;69203;48.964;9.118;2024-02-21T02:16:08;99751.81;;;6.03;100.00
79709;BME280;69203;48.964;9.118;2024-02-21T02:17:08;99759.59;;;6.05;100.00
79709;BME280;69203;48.964;9.118;2024-02-21T02:18:10;99753.59;;;6.03;100.00
79709;BME280;69203;48.964;9.118;2024-02-21T02:19:10;99750.22;;;5.99;100.00
79709;BME280;69203;48.964;9.118;2024-02-21T02:20:14;99744.94;;;6.02;100.00
79709;BME280;69203;48.964;9.118;2024-02-21T02:21:20;99739.97;;;5.94;100.00
79709;BME280;69203;48.964;9.118;2024-02-21T02:22:27;99739.16;;;5.92;100.00
79709;BME280;69203;48.964;9.118;2024-02-21T02:23:29;99731.50;;;5.88;100.00
79709;BME280;69203;48.964;9.118;2024-02-21T02:24:29;99727.19;;;5.87;100.00
79709;BME280;69203;48.964;9.118;2024-02-21T02:25:29;99725.53;;;5.84;100.00
79709;BME280;69203;48.964;9.118;2024-02-21T02:26:30;99724.50;;;5.90;100.00
79709;BME280;69203;48.964;9.118;2024-02-21T02:27:31;99711.59;;;5.85;100.00
79709;BME280;69203;48.964;9.118;2024-02-21T02:28:32;99710.91;;;5.80;100.00
79709;BME280;69203;48.964;9.118;2024-02-21T02:29:33;99713.56;;;5.79;100.00
79709;BME280;69203;48.964;9.118;2024-02-21T02:30:33;99722.03;;;5.85;100.00
79709;BME280;69203;48.964;9.118;2024-02-21T02:31:34;99735.81;;;5.89;100.00
79709;BME280;69203;48.964;9.118;2024-02-21T02:32:35;99750.28;;;5.98;100.00
79709;BME280;69203;48.964;9.118;2024-02-21T02:33:36;99762.59;;;5.92;100.00
79709;BME280;69203;48.964;9.118;2024-02-21T02:34:36;99765.34;;;5.89;100.00
79709;BME280;69203;48.964;9.118;2024-02-21T02:35:36;99766.19;;;5.90;100.00
79709;BME280;69203;48.964;9.118;2024-02-21T02:36:36;99771.50;;;5.87;100.00
79709;BME280;69203;48.964;9.118;2024-02-21T02:37:37;99767.69;;;5.97;100.00
79709;BME280;69203;48.964;9.118;2024-02-21T02:38:38;99770.13;;;6.02;100.00
79709;BME280;69203;48.964;9.118;2024-02-21T02:39:39;99770.50;;;5.91;100.00
79709;BME280;69203;48.964;9.118;2024-02-21T02:40:39;99771.03;;;6.01;100.00
79709;BME280;69203;48.964;9.118;2024-02-21T02:41:40;99775.41;;;6.00;100.00
79709;BME280;69203;48.964;9.118;2024-02-21T02:42:40;99761.91;;;5.87;100.00
79709;BME280;69203;48.964;9.118;2024-02-21T02:43:41;99765.66;;;5.79;100.00
79709;BME280;69203;48.964;9.118;2024-02-21T02:44:41;99757.72;;;5.82;100.00
79709;BME280;69203;48.964;9.118;2024-02-21T02:45:41;99755.97;;;5.82;100.00
79709;BME280;69203;48.964;9.118;2024-02-21T02:46:41;99754.50;;;5.75;100.00
79709;BME280;69203;48.964;9.118;2024-02-21T02:47:42;99750.84;;;5.81;100.00
79709;BME280;69203;48.964;9.118;2024-02-21T02:48:44;99750.84;;;5.81;100.00
79709;BME280;69203;48.964;9.118;2024-02-21T02:49:45;99751.78;;;5.78;100.00
79709;BME280;69203;48.964;9.118;2024-02-21T02:50:45;99751.03;;;5.75;100.00
79709;BME280;69203;48.964;9.118;2024-02-21T02:51:46;99745.88;;;5.73;100.00
79709;BME280;69203;48.964;9.118;2024-02-21T02:52:46;99744.78;;;5.80;100.00
79709;BME280;69203;48.964;9.118;2024-02-21T02:53:46;99742.22;;;5.79;100.00
79709;BME280;69203;48.964;9.118;2024-02-21T02:54:46;99741.53;;;5.74;100.00
79709;BME280;69203;48.964;9.118;2024-02-21T02:55:51;99736.16;;;5.78;100.00
79709;BME280;69203;48.964;9.118;2024-02-21T02:56:51;99737.13;;;5.76;100.00
79709;BME280;69203;48.964;9.118;2024-02-21T02:57:52;99734.59;;;5.73;100.00
79709;BME280;69203;48.964;9.118;2024-02-21T02:58:52;99731.31;;;5.68;100.00
79709;BME280;69203;48.964;9.118;2024-02-21T02:59:53;99735.66;;;5.67;100.00
79709;BME280;69203;48.964;9.118;2024-02-21T03:00:53;99737.41;;;5.67;100.00
79709;BME280;69203;48.964;9.118;2024-02-21T03:01:53;99735.78;;;5.64;100.00
79709;BME280;69203;48.964;9.118;2024-02-21T03:02:53;99739.47;;;5.57;100.00
79709;BME280;69203;48.964;9.118;2024-02-21T03:03:54;99736.22;;;5.50;100.00
79709;BME280;69203;48.964;9.118;2024-02-21T03:04:54;99731.13;;;5.47;100.00
79709;BME280;69203;48.964;9.118;2024-02-21T03:05:54;99734.88;;;5.39;100.00
79709;BME280;69203;48.964;9.118;2024-02-21T03:06:54;99721.91;;;5.37;100.00
79709;BME280;69203;48.964;9.118;2024-02-21T03:07:56;99723.81;;;5.32;100.00
79709;BME280;69203;48.964;9.118;2024-02-21T03:08:56;99717.81;;;5.29;100.00
79709;BME280;69203;48.964;9.118;2024-02-21T03:09:57;99719.38;;;5.34;100.00
79709;BME280;69203;48.964;9.118;2024-02-21T03:10:57;99716.94;;;5.30;100.00
79709;BME280;69203;48.964;9.118;2024-02-21T03:11:57;99714.41;;;5.28;100.00
79709;BME280;69203;48.964;9.118;2024-02-21T03:13:02;99717.81;;;5.29;100.00
79709;BME280;69203;48.964;9.118;2024-02-21T03:14:03;99724.75;;;5.30;100.00
79709;BME280;69203;48.964;9.118;2024-02-21T03:15:04;99723.09;;;5.27;100.00
79709;BME280;69203;48.964;9.118;2024-02-21T03:16:05;99723.19;;;5.24;100.00
79709;BME280;69203;48.964;9.118;2024-02-21T03:17:05;99723.25;;;5.23;100.00
79709;BME280;69203;48.964;9.118;2024-02-21T03:18:06;99730.22;;;5.22;100.00
79709;BME280;69203;48.964;9.118;2024-02-21T03:19:06;99725.94;;;5.20;100.00
79709;BME280;69203;48.964;9.118;2024-02-21T03:20:07;99724.31;;;5.17;100.00
79709;BME280;69203;48.964;9.118;2024-02-21T03:21:10;99720.88;;;5.15;100.00
79709;BME280;69203;48.964;9.118;2024-02-21T03:22:10;99718.31;;;5.14;100.00
79709;BME280;69203;48.964;9.118;2024-02-21T03:23:10;99711.47;;;5.11;100.00
79709;BME280;69203;48.964;9.118;2024-02-21T03:24:11;99713.25;;;5.09;100.00
79709;BME280;69203;48.964;9.118;2024-02-21T03:25:12;99720.03;;;5.15;100.00
79709;BME280;69203;48.964;9.118;2024-02-21T03:26:14;99713.88;;;5.17;100.00
79709;BME280;69203;48.964;9.118;2024-02-21T03:27:17;99720.88;;;5.15;100.00
79709;BME280;69203;48.964;9.118;2024-02-21T03:28:17;99721.69;;;5.17;100.00
79709;BME280;69203;48.964;9.118;2024-02-21T03:29:17;99713.81;;;5.19;100.00
79709;BME280;69203;48.964;9.118;2024-02-21T03:30:17;99724.22;;;5.19;100.00
79709;BME280;69203;48.964;9.118;2024-02-21T03:31:18;99728.66;;;5.17;100.00
79709;BME280;69203;48.964;9.118;2024-02-21T03:32:18;99725.25;;;5.15;100.00
79709;BME280;69203;48.964;9.118;2024-02-21T03:33:20;99726.13;;;5.14;100.00
79709;BME280;69203;48.964;9.118;2024-02-21T03:34:21;99721.06;;;5.09;100.00
79709;BME280;69203;48.964;9.118;2024-02-21T03:35:22;99722.03;;;5.06;100.00
79709;BME280;69203;48.964;9.118;2024-02-21T03:36:26;99725.50;;;5.07;100.00
79709;BME280;69203;48.964;9.118;2024-02-21T03:37:26;99735.91;;;5.07;100.00
79709;BME280;69203;48.964;9.118;2024-02-21T03:38:27;99735.78;;;5.10;100.00
79709;BME280;69203;48.964;9.118;2024-02-21T03:39:27;99734.78;;;5.14;100.00
79709;BME280;69203;48.964;9.118;2024-02-21T03:40:27;99743.31;;;5.19;100.00
79709;BME280;69203;48.964;9.118;2024-02-21T03:41:29;99737.53;;;5.09;100.00
79709;BME280;69203;48.964;9.118;2024-02-21T03:42:29;99737.66;;;5.06;100.00
79709;BME280;69203;48.964;9.118;2024-02-21T03:43:31;99736.53;;;5.14;100.00
79709;BME280;69203;48.964;9.118;2024-02-21T03:44:31;99729.41;;;5.20;100.00
79709;BME280;69203;48.964;9.118;2024-02-21T03:45:32;99737.69;;;5.33;100.00
79709;BME280;69203;48.964;9.118;2024-02-21T03:46:32;99736.88;;;5.31;100.00
79709;BME280;69203;48.964;9.118;2024-02-21T03:47:32;99736.38;;;5.46;100.00
79709;BME280;69203;48.964;9.118;2024-02-21T03:48:32;99730.38;;;5.44;100.00
79709;BME280;69203;48.964;9.118;2024-02-21T03:49:33;99736.81;;;5.32;100.00
79709;BME280;69203;48.964;9.118;2024-02-21T03:50:33;99725.72;;;5.27;100.00
79709;BME280;69203;48.964;9.118;2024-02-21T03:51:33;99733.72;;;5.21;100.00
79709;BME280;69203;48.964;9.118;2024-02-21T03:52:33;99730.28;;;5.19;100.00
79709;BME280;69203;48.964;9.118;2024-02-21T03:53:34;99726.06;;;5.17;100.00
79709;BME280;69203;48.964;9.118;2024-02-21T03:54:34;99733.81;;;5.18;100.00
79709;BME280;69203;48.964;9.118;2024-02-21T03:55:34;99729.44;;;5.19;100.00
79709;BME280;69203;48.964;9.118;2024-02-21T03:56:38;99732.16;;;5.16;100.00
79709;BME280;69203;48.964;9.118;2024-02-21T03:57:39;99730.44;;;5.15;100.00
79709;BME280;69203;48.964;9.118;2024-02-21T03:58:40;99727.94;;;5.12;100.00
79709;BME280;69203;48.964;9.118;2024-02-21T03:59:40;99738.41;;;5.10;100.00
79709;BME280;69203;48.964;9.118;2024-02-21T04:00:40;99731.56;;;5.07;100.00
79709;BME280;69203;48.964;9.118;2024-02-21T04:01:41;99725.56;;;5.04;100.00
79709;BME280;69203;48.964;9.118;2024-02-21T04:02:42;99724.81;;;5.00;100.00
79709;BME280;69203;48.964;9.118;2024-02-21T04:03:43;99723.25;;;4.95;100.00
79709;BME280;69203;48.964;9.118;2024-02-21T04:04:43;99723.22;;;4.96;100.00
79709;BME280;69203;48.964;9.118;2024-02-21T04:05:46;99728.44;;;4.96;100.00
79709;BME280;69203;48.964;9.118;2024-02-21T04:06:50;99730.81;;;5.02;100.00
79709;BME280;69203;48.964;9.118;2024-02-21T04:07:50;99730.38;;;5.18;100.00
79709;BME280;69203;48.964;9.118;2024-02-21T04:08:51;99729.44;;;5.19;100.00
79709;BME280;69203;48.964;9.118;2024-02-21T04:09:52;99720.03;;;5.15;100.00
79709;BME280;69203;48.964;9.118;2024-02-21T04:10:52;99719.44;;;5.06;100.00
79709;BME280;69203;48.964;9.118;2024-02-21T04:11:52;99718.41;;;5.12;100.00
79709;BME280;69203;48.964;9.118;2024-02-21T04:12:53;99710.94;;;5.01;100.00
79709;BME280;69203;48.964;9.118;2024-02-21T04:13:53;99702.25;;;5.01;100.00
79709;BME280;69203;48.964;9.118;2024-02-21T04:14:53;99704.09;;;4.97;100.00
79709;BME280;69203;48.964;9.118;2024-02-21T04:15:53;99699.00;;;4.94;100.00
79709;BME280;69203;48.964;9.118;2024-02-21T04:16:55;99699.75;;;4.98;100.00
79709;BME280;69203;48.964;9.118;2024-02-21T04:17:55;99700.78;;;4.92;100.00
79709;BME280;69203;48.964;9.118;2024-02-21T04:18:55;99700.84;;;4.91;100.00
79709;BME280;69203;48.964;9.118;2024-02-21T04:20:01;99701.69;;;4.91;100.00
79709;BME280;69203;48.964;9.118;2024-02-21T04:21:02;99714.00;;;4.86;100.00
79709;BME280;69203;48.964;9.118;2024-02-21T04:22:02;99709.72;;;4.84;100.00
79709;BME280;69203;48.964;9.118;2024-02-21T04:23:02;99712.03;;;4.93;100.00
79709;BME280;69203;48.964;9.118;2024-02-21T04:24:03;99726.63;;;4.98;100.00
79709;BME280;69203;48.964;9.118;2024-02-21T04:25:05;99726.97;;;5.14;100.00
79709;BME280;69203;48.964;9.118;2024-02-21T04:26:05;99731.78;;;5.00;100.00
79709;BME280;69203;48.964;9.118;2024-02-21T04:27:06;99727.78;;;4.88;100.00
79709;BME280;69203;48.964;9.118;2024-02-21T04:28:06;99727.97;;;4.82;100.00
79709;BME280;69203;48.964;9.118;2024-02-21T04:29:06;99726.38;;;4.78;100.00
79709;BME280;69203;48.964;9.118;2024-02-21T04:30:07;99719.56;;;4.74;100.00
79709;BME280;69203;48.964;9.118;2024-02-21T04:31:09;99718.75;;;4.72;100.00
79709;BME280;69203;48.964;9.118;2024-02-21T04:32:09;99718.44;;;4.83;100.00
79709;BME280;69203;48.964;9.118;2024-02-21T04:33:09;99724.41;;;4.86;100.00
79709;BME280;69203;48.964;9.118;2024-02-21T04:34:10;99720.09;;;4.85;100.00
79709;BME280;69203;48.964;9.118;2024-02-21T04:35:10;99719.06;;;4.91;100.00
79709;BME280;69203;48.964;9.118;2024-02-21T04:36:10;99730.19;;;4.96;100.00
79709;BME280;69203;48.964;9.118;2024-02-21T04:37:10;99728.00;;;5.10;100.00
79709;BME280;69203;48.964;9.118;2024-02-21T04:38:11;99734.44;;;5.25;100.00
79709;BME280;69203;48.964;9.118;2024-02-21T04:39:11;99735.69;;;5.13;100.00
79709;BME280;69203;48.964;9.118;2024-02-21T04:40:11;99727.81;;;5.16;100.00
79709;BME280;69203;48.964;9.118;2024-02-21T04:41:13;99736.03;;;5.02;100.00
79709;BME280;69203;48.964;9.118;2024-02-21T04:42:13;99728.78;;;4.84;100.00
79709;BME280;69203;48.964;9.118;2024-02-21T04:43:13;99738.38;;;4.82;100.00
79709;BME280;69203;48.964;9.118;2024-02-21T04:44:13;99734.13;;;4.80;100.00
79709;BME280;69203;48.964;9.118;2024-02-21T04:45:16;99736.63;;;4.83;100.00
79709;BME280;69203;48.964;9.118;2024-02-21T04:46:16;99742.78;;;4.80;100.00
79709;BME280;69203;48.964;9.118;2024-02-21T04:47:16;99736.06;;;4.73;100.00
79709;BME280;69203;48.964;9.118;2024-02-21T04:48:17;99738.09;;;4.63;100.00
79709;BME280;69203;48.964;9.118;2024-02-21T04:49:17;99744.19;;;4.62;100.00
79709;BME280;69203;48.964;9.118;2024-02-21T04:50:17;99747.63;;;4.63;100.00
79709;BME280;69203;48.964;9.118;2024-02-21T04:51:18;99738.09;;;4.63;100.00
79709;BME280;69203;48.964;9.118;2024-02-21T04:52:18;99743.38;;;4.60;100.00
79709;BME280;69203;48.964;9.118;2024-02-21T04:53:19;99739.97;;;4.58;100.00
79709;BME280;69203;48.964;9.118;2024-02-21T04:54:19;99741.91;;;4.52;100.00
79709;BME280;69203;48.964;9.118;2024-02-21T04:55:19;99739.19;;;4.55;100.00
79709;BME280;69203;48.964;9.118;2024-02-21T04:56:19;99746.09;;;4.56;100.00
79709;BME280;69203;48.964;9.118;2024-02-21T04:57:20;99744.38;;;4.55;100.00
79709;BME280;69203;48.964;9.118;2024-02-21T04:58:20;99742.00;;;4.49;100.00
79709;BME280;69203;48.964;9.118;2024-02-21T04:59:20;99745.84;;;4.34;100.00
79709;BME280;69203;48.964;9.118;2024-02-21T05:00:20;99739.22;;;4.24;100.00
79709;BME280;69203;48.964;9.118;2024-02-21T05:01:21;99750.56;;;4.21;100.00
79709;BME280;69203;48.964;9.118;2024-02-21T05:02:21;99743.63;;;4.22;100.00
79709;BME280;69203;48.964;9.118;2024-02-21T05:03:24;99742.09;;;4.13;100.00
79709;BME280;69203;48.964;9.118;2024-02-21T05:04:24;99735.13;;;4.15;100.00
79709;BME280;69203;48.964;9.118;2024-02-21T05:05:24;99729.22;;;4.10;100.00
79709;BME280;69203;48.964;9.118;2024-02-21T05:06:24;99721.41;;;4.10;100.00
79709;BME280;69203;48.964;9.118;2024-02-21T05:07:25;99716.25;;;4.09;100.00
79709;BME280;69203;48.964;9.118;2024-02-21T05:08:25;99722.53;;;4.02;100.00
79709;BME280;69203;48.964;9.118;2024-02-21T05:09:25;99722.56;;;4.00;100.00
79709;BME280;69203;48.964;9.118;2024-02-21T05:10:26;99728.56;;;4.02;100.00
79709;BME280;69203;48.964;9.118;2024-02-21T05:11:26;99730.84;;;4.13;100.00
79709;BME280;69203;48.964;9.118;2024-02-21T05:12:27;99734.97;;;4.21;100.00
79709;BME280;69203;48.964;9.118;2024-02-21T05:13:27;99735.75;;;4.23;100.00
79709;BME280;69203;48.964;9.118;2024-02-21T05:14:28;99733.47;;;4.13;100.00
79709;BME280;69203;48.964;9.118;2024-02-21T05:15:28;99726.03;;;4.01;100.00
79709;BME280;69203;48.964;9.118;2024-02-21T05:16:28;99720.28;;;3.88;100.00
79709;BME280;69203;48.964;9.118;2024-02-21T05:17:28;99712.63;;;3.83;100.00
79709;BME280;69203;48.964;9.118;2024-02-21T05:18:29;99699.75;;;3.79;100.00
79709;BME280;69203;48.964;9.118;2024-02-21T05:19:29;99705.66;;;3.86;100.00
79709;BME280;69203;48.964;9.118;2024-02-21T05:20:29;99700.09;;;3.98;100.00